sensor_id;sensor_type;location;lat;lon;timestamp;P1;durP1;ratioP1;P2;durP2;ratioP2
28509;SDS011;15723;55.684;37.928;2022-09-29T00:00:27;11.38;;;7.82;;
28509;SDS011;15723;55.684;37.928;2022-09-29T00:02:54;11.60;;;7.45;;
28509;SDS011;15723;55.684;37.928;2022-09-29T00:05:20;9.55;;;7.93;;
28509;SDS011;15723;55.684;37.928;2022-09-29T00:07:46;10.35;;;7.78;;
28509;SDS011;15723;55.684;37.928;2022-09-29T00:10:12;10.80;;;7.88;;
28509;SDS011;15723;55.684;37.928;2022-09-29T00:12:39;16.67;;;8.55;;
28509;SDS011;15723;55.684;37.928;2022-09-29T00:15:05;16.13;;;8.82;;
28509;SDS011;15723;55.684;37.928;2022-09-29T00:17:32;13.00;;;8.38;;
28509;SDS011;15723;55.684;37.928;2022-09-29T00:19:58;12.00;;;8.10;;
28509;SDS011;15723;55.684;37.928;2022-09-29T00:22:25;15.60;;;7.63;;
28509;SDS011;15723;55.684;37.928;2022-09-29T00:24:51;10.77;;;7.53;;
28509;SDS011;15723;55.684;37.928;2022-09-29T00:27:18;11.02;;;7.70;;
28509;SDS011;15723;55.684;37.928;2022-09-29T00:29:45;12.10;;;8.02;;
28509;SDS011;15723;55.684;37.928;2022-09-29T00:32:11;12.30;;;7.60;;
28509;SDS011;15723;55.684;37.928;2022-09-29T00:34:38;11.77;;;7.70;;
28509;SDS011;15723;55.684;37.928;2022-09-29T00:37:04;10.60;;;7.53;;
28509;SDS011;15723;55.684;37.928;2022-09-29T00:39:31;9.77;;;6.63;;
28509;SDS011;15723;55.684;37.928;2022-09-29T00:41:57;10.18;;;7.20;;
28509;SDS011;15723;55.684;37.928;2022-09-29T00:47:27;14.60;;;7.63;;
28509;SDS011;15723;55.684;37.928;2022-09-29T00:49:56;8.02;;;6.72;;
28509;SDS011;15723;55.684;37.928;2022-09-29T00:52:32;10.45;;;7.07;;
28509;SDS011;15723;55.684;37.928;2022-09-29T00:57:40;11.57;;;6.57;;
28509;SDS011;15723;55.684;37.928;2022-09-29T01:00:13;11.75;;;6.43;;
28509;SDS011;15723;55.684;37.928;2022-09-29T01:02:52;8.52;;;6.60;;
28509;SDS011;15723;55.684;37.928;2022-09-29T01:07:58;9.25;;;7.45;;
28509;SDS011;15723;55.684;37.928;2022-09-29T01:10:34;8.75;;;6.60;;
28509;SDS011;15723;55.684;37.928;2022-09-29T01:13:01;9.18;;;6.65;;
28509;SDS011;15723;55.684;37.928;2022-09-29T01:15:28;11.75;;;6.47;;
28509;SDS011;15723;55.684;37.928;2022-09-29T01:17:54;14.45;;;6.93;;
28509;SDS011;15723;55.684;37.928;2022-09-29T01:20:21;7.97;;;6.50;;
28509;SDS011;15723;55.684;37.928;2022-09-29T01:33:50;9.70;;;6.68;;
28509;SDS011;15723;55.684;37.928;2022-09-29T01:39:29;12.13;;;6.30;;
28509;SDS011;15723;55.684;37.928;2022-09-29T01:42:05;7.55;;;6.20;;
28509;SDS011;15723;55.684;37.928;2022-09-29T01:44:44;9.95;;;6.40;;
28509;SDS011;15723;55.684;37.928;2022-09-29T01:50:19;7.97;;;6.15;;
28509;SDS011;15723;55.684;37.928;2022-09-29T01:52:50;8.85;;;6.68;;
28509;SDS011;15723;55.684;37.928;2022-09-29T01:55:22;10.02;;;6.60;;
28509;SDS011;15723;55.684;37.928;2022-09-29T01:57:55;9.68;;;6.53;;
28509;SDS011;15723;55.684;37.928;2022-09-29T02:00:25;11.18;;;6.95;;
28509;SDS011;15723;55.684;37.928;2022-09-29T02:03:00;14.50;;;6.60;;
28509;SDS011;15723;55.684;37.928;2022-09-29T02:08:13;10.52;;;6.57;;
28509;SDS011;15723;55.684;37.928;2022-09-29T02:10:49;9.50;;;6.65;;
28509;SDS011;15723;55.684;37.928;2022-09-29T02:13:25;10.70;;;6.47;;
28509;SDS011;15723;55.684;37.928;2022-09-29T02:15:54;9.15;;;6.93;;
28509;SDS011;15723;55.684;37.928;2022-09-29T02:18:27;7.28;;;5.97;;
28509;SDS011;15723;55.684;37.928;2022-09-29T02:20:59;9.68;;;6.60;;
28509;SDS011;15723;55.684;37.928;2022-09-29T02:23:26;9.02;;;6.57;;
28509;SDS011;15723;55.684;37.928;2022-09-29T02:25:52;11.95;;;6.78;;
28509;SDS011;15723;55.684;37.928;2022-09-29T02:28:26;12.75;;;6.70;;
28509;SDS011;15723;55.684;37.928;2022-09-29T02:30:53;10.60;;;6.93;;
28509;SDS011;15723;55.684;37.928;2022-09-29T02:33:20;13.88;;;6.88;;
28509;SDS011;15723;55.684;37.928;2022-09-29T02:38:42;8.98;;;6.13;;
28509;SDS011;15723;55.684;37.928;2022-09-29T02:52:47;9.50;;;7.32;;
28509;SDS011;15723;55.684;37.928;2022-09-29T03:00:45;15.43;;;8.57;;
28509;SDS011;15723;55.684;37.928;2022-09-29T03:03:12;11.68;;;7.40;;
28509;SDS011;15723;55.684;37.928;2022-09-29T03:05:38;13.30;;;7.93;;
28509;SDS011;15723;55.684;37.928;2022-09-29T03:08:05;12.02;;;7.72;;
28509;SDS011;15723;55.684;37.928;2022-09-29T03:10:49;10.90;;;7.15;;
28509;SDS011;15723;55.684;37.928;2022-09-29T03:13:16;13.60;;;7.32;;
28509;SDS011;15723;55.684;37.928;2022-09-29T03:15:42;10.65;;;7.75;;
28509;SDS011;15723;55.684;37.928;2022-09-29T03:18:08;11.57;;;7.65;;
28509;SDS011;15723;55.684;37.928;2022-09-29T03:20:34;10.23;;;7.97;;
28509;SDS011;15723;55.684;37.928;2022-09-29T03:23:01;11.70;;;8.55;;
28509;SDS011;15723;55.684;37.928;2022-09-29T03:25:27;11.25;;;7.78;;
28509;SDS011;15723;55.684;37.928;2022-09-29T03:27:53;10.82;;;8.18;;
28509;SDS011;15723;55.684;37.928;2022-09-29T03:30:20;12.48;;;8.20;;
28509;SDS011;15723;55.684;37.928;2022-09-29T03:32:48;15.57;;;7.68;;
28509;SDS011;15723;55.684;37.928;2022-09-29T03:35:14;11.13;;;7.28;;
28509;SDS011;15723;55.684;37.928;2022-09-29T03:37:41;11.23;;;7.40;;
28509;SDS011;15723;55.684;37.928;2022-09-29T03:40:07;10.23;;;7.32;;
28509;SDS011;15723;55.684;37.928;2022-09-29T03:42:34;11.57;;;7.95;;
28509;SDS011;15723;55.684;37.928;2022-09-29T03:45:00;12.80;;;7.32;;
28509;SDS011;15723;55.684;37.928;2022-09-29T03:47:28;11.45;;;7.63;;
28509;SDS011;15723;55.684;37.928;2022-09-29T03:49:54;9.15;;;7.00;;
28509;SDS011;15723;55.684;37.928;2022-09-29T03:52:21;8.25;;;7.07;;
28509;SDS011;15723;55.684;37.928;2022-09-29T03:54:47;14.77;;;7.53;;
28509;SDS011;15723;55.684;37.928;2022-09-29T03:57:14;12.32;;;7.32;;
28509;SDS011;15723;55.684;37.928;2022-09-29T03:59:40;8.82;;;6.72;;
28509;SDS011;15723;55.684;37.928;2022-09-29T04:02:06;11.00;;;7.75;;
28509;SDS011;15723;55.684;37.928;2022-09-29T04:04:32;17.55;;;7.90;;
28509;SDS011;15723;55.684;37.928;2022-09-29T04:06:59;10.80;;;7.63;;
28509;SDS011;15723;55.684;37.928;2022-09-29T04:09:25;11.05;;;6.95;;
28509;SDS011;15723;55.684;37.928;2022-09-29T04:11:51;12.43;;;7.65;;
28509;SDS011;15723;55.684;37.928;2022-09-29T04:14:17;15.32;;;8.60;;
28509;SDS011;15723;55.684;37.928;2022-09-29T04:16:43;12.43;;;7.75;;
28509;SDS011;15723;55.684;37.928;2022-09-29T04:19:10;10.68;;;8.23;;
28509;SDS011;15723;55.684;37.928;2022-09-29T04:21:36;11.48;;;8.90;;
28509;SDS011;15723;55.684;37.928;2022-09-29T04:24:05;14.02;;;9.63;;
28509;SDS011;15723;55.684;37.928;2022-09-29T04:26:31;13.30;;;9.27;;
28509;SDS011;15723;55.684;37.928;2022-09-29T04:28:57;14.75;;;10.30;;
28509;SDS011;15723;55.684;37.928;2022-09-29T04:31:24;13.95;;;9.70;;
28509;SDS011;15723;55.684;37.928;2022-09-29T04:33:50;16.35;;;9.77;;
28509;SDS011;15723;55.684;37.928;2022-09-29T04:36:17;13.25;;;9.73;;
28509;SDS011;15723;55.684;37.928;2022-09-29T04:38:43;20.30;;;9.52;;
28509;SDS011;15723;55.684;37.928;2022-09-29T04:41:09;15.35;;;9.05;;
28509;SDS011;15723;55.684;37.928;2022-09-29T04:43:36;17.33;;;9.40;;
28509;SDS011;15723;55.684;37.928;2022-09-29T04:46:03;18.52;;;9.30;;
28509;SDS011;15723;55.684;37.928;2022-09-29T04:48:31;20.73;;;10.00;;
28509;SDS011;15723;55.684;37.928;2022-09-29T04:50:57;16.33;;;9.48;;
28509;SDS011;15723;55.684;37.928;2022-09-29T04:53:23;18.30;;;9.27;;
28509;SDS011;15723;55.684;37.928;2022-09-29T04:55:50;13.02;;;8.38;;
28509;SDS011;15723;55.684;37.928;2022-09-29T04:58:16;11.00;;;8.00;;
28509;SDS011;15723;55.684;37.928;2022-09-29T05:00:42;14.85;;;8.00;;
28509;SDS011;15723;55.684;37.928;2022-09-29T05:03:08;17.48;;;9.30;;
28509;SDS011;15723;55.684;37.928;2022-09-29T05:05:35;13.68;;;8.02;;
28509;SDS011;15723;55.684;37.928;2022-09-29T05:08:04;15.68;;;8.90;;
28509;SDS011;15723;55.684;37.928;2022-09-29T05:10:31;14.60;;;9.77;;
28509;SDS011;15723;55.684;37.928;2022-09-29T05:12:57;18.85;;;10.98;;
28509;SDS011;15723;55.684;37.928;2022-09-29T05:15:23;19.58;;;10.48;;
28509;SDS011;15723;55.684;37.928;2022-09-29T05:17:49;18.80;;;10.05;;
28509;SDS011;15723;55.684;37.928;2022-09-29T05:20:16;17.27;;;10.15;;
28509;SDS011;15723;55.684;37.928;2022-09-29T05:22:42;14.20;;;8.93;;
28509;SDS011;15723;55.684;37.928;2022-09-29T05:25:08;18.63;;;9.70;;
28509;SDS011;15723;55.684;37.928;2022-09-29T05:27:35;19.13;;;9.63;;
28509;SDS011;15723;55.684;37.928;2022-09-29T05:30:02;13.48;;;9.40;;
28509;SDS011;15723;55.684;37.928;2022-09-29T05:32:29;13.55;;;9.00;;
28509;SDS011;15723;55.684;37.928;2022-09-29T05:34:55;12.27;;;7.93;;
28509;SDS011;15723;55.684;37.928;2022-09-29T05:37:22;9.57;;;7.57;;
28509;SDS011;15723;55.684;37.928;2022-09-29T05:39:49;10.35;;;7.80;;
28509;SDS011;15723;55.684;37.928;2022-09-29T05:42:33;10.32;;;6.85;;
28509;SDS011;15723;55.684;37.928;2022-09-29T05:44:59;10.25;;;6.78;;
28509;SDS011;15723;55.684;37.928;2022-09-29T05:47:26;7.85;;;6.35;;
28509;SDS011;15723;55.684;37.928;2022-09-29T05:49:52;12.82;;;6.47;;
28509;SDS011;15723;55.684;37.928;2022-09-29T05:52:18;8.73;;;5.40;;
28509;SDS011;15723;55.684;37.928;2022-09-29T05:54:44;12.18;;;6.93;;
28509;SDS011;15723;55.684;37.928;2022-09-29T05:57:15;7.20;;;5.57;;
28509;SDS011;15723;55.684;37.928;2022-09-29T05:59:43;9.15;;;5.55;;
28509;SDS011;15723;55.684;37.928;2022-09-29T06:02:09;12.20;;;5.90;;
28509;SDS011;15723;55.684;37.928;2022-09-29T06:04:35;9.30;;;6.30;;
28509;SDS011;15723;55.684;37.928;2022-09-29T06:07:01;7.55;;;5.82;;
28509;SDS011;15723;55.684;37.928;2022-09-29T06:09:29;9.32;;;7.03;;
28509;SDS011;15723;55.684;37.928;2022-09-29T06:12:13;13.52;;;6.90;;
28509;SDS011;15723;55.684;37.928;2022-09-29T06:14:58;9.30;;;7.15;;
28509;SDS011;15723;55.684;37.928;2022-09-29T06:17:24;9.30;;;6.70;;
28509;SDS011;15723;55.684;37.928;2022-09-29T06:19:50;15.77;;;8.45;;
28509;SDS011;15723;55.684;37.928;2022-09-29T06:22:18;12.55;;;9.35;;
28509;SDS011;15723;55.684;37.928;2022-09-29T06:24:44;16.23;;;9.43;;
28509;SDS011;15723;55.684;37.928;2022-09-29T06:27:10;11.07;;;9.27;;
28509;SDS011;15723;55.684;37.928;2022-09-29T06:29:36;17.60;;;9.68;;
28509;SDS011;15723;55.684;37.928;2022-09-29T06:32:03;15.45;;;11.20;;
28509;SDS011;15723;55.684;37.928;2022-09-29T06:34:29;14.55;;;9.80;;
28509;SDS011;15723;55.684;37.928;2022-09-29T06:36:55;17.85;;;9.40;;
28509;SDS011;15723;55.684;37.928;2022-09-29T06:39:39;14.10;;;9.77;;
28509;SDS011;15723;55.684;37.928;2022-09-29T06:42:05;16.20;;;11.35;;
28509;SDS011;15723;55.684;37.928;2022-09-29T06:44:32;15.30;;;10.43;;
28509;SDS011;15723;55.684;37.928;2022-09-29T06:46:59;15.10;;;9.93;;
28509;SDS011;15723;55.684;37.928;2022-09-29T06:49:25;17.50;;;9.85;;
28509;SDS011;15723;55.684;37.928;2022-09-29T06:51:51;19.30;;;11.00;;
28509;SDS011;15723;55.684;37.928;2022-09-29T06:54:19;14.40;;;10.65;;
28509;SDS011;15723;55.684;37.928;2022-09-29T06:56:47;16.65;;;11.75;;
28509;SDS011;15723;55.684;37.928;2022-09-29T06:59:14;18.83;;;12.48;;
28509;SDS011;15723;55.684;37.928;2022-09-29T07:01:40;13.18;;;10.10;;
28509;SDS011;15723;55.684;37.928;2022-09-29T07:04:07;16.73;;;11.02;;
28509;SDS011;15723;55.684;37.928;2022-09-29T07:06:33;15.27;;;10.90;;
28509;SDS011;15723;55.684;37.928;2022-09-29T07:09:00;13.55;;;10.13;;
28509;SDS011;15723;55.684;37.928;2022-09-29T07:11:27;14.20;;;9.98;;
28509;SDS011;15723;55.684;37.928;2022-09-29T07:13:54;17.35;;;14.02;;
28509;SDS011;15723;55.684;37.928;2022-09-29T07:16:21;16.98;;;13.10;;
28509;SDS011;15723;55.684;37.928;2022-09-29T07:18:48;14.82;;;9.88;;
28509;SDS011;15723;55.684;37.928;2022-09-29T07:21:15;13.95;;;10.35;;
28509;SDS011;15723;55.684;37.928;2022-09-29T07:23:44;15.25;;;9.93;;
28509;SDS011;15723;55.684;37.928;2022-09-29T07:26:12;13.35;;;9.07;;
28509;SDS011;15723;55.684;37.928;2022-09-29T07:28:38;13.85;;;9.38;;
28509;SDS011;15723;55.684;37.928;2022-09-29T07:31:06;13.85;;;9.77;;
28509;SDS011;15723;55.684;37.928;2022-09-29T07:33:34;12.23;;;9.20;;
28509;SDS011;15723;55.684;37.928;2022-09-29T07:36:00;15.70;;;9.63;;
28509;SDS011;15723;55.684;37.928;2022-09-29T07:38:28;12.13;;;9.85;;
28509;SDS011;15723;55.684;37.928;2022-09-29T07:40:59;20.80;;;10.70;;
28509;SDS011;15723;55.684;37.928;2022-09-29T07:43:27;15.13;;;9.38;;
28509;SDS011;15723;55.684;37.928;2022-09-29T07:45:53;13.48;;;10.00;;
28509;SDS011;15723;55.684;37.928;2022-09-29T07:48:19;17.98;;;13.93;;
28509;SDS011;15723;55.684;37.928;2022-09-29T07:50:45;17.85;;;12.95;;
28509;SDS011;15723;55.684;37.928;2022-09-29T07:53:12;16.23;;;10.93;;
28509;SDS011;15723;55.684;37.928;2022-09-29T07:55:38;13.20;;;9.98;;
28509;SDS011;15723;55.684;37.928;2022-09-29T07:58:05;13.88;;;10.40;;
28509;SDS011;15723;55.684;37.928;2022-09-29T08:00:31;28.25;;;13.15;;
28509;SDS011;15723;55.684;37.928;2022-09-29T08:02:58;14.93;;;10.93;;
28509;SDS011;15723;55.684;37.928;2022-09-29T08:05:29;11.73;;;9.52;;
28509;SDS011;15723;55.684;37.928;2022-09-29T08:07:59;16.55;;;9.18;;
28509;SDS011;15723;55.684;37.928;2022-09-29T08:10:26;17.58;;;9.40;;
28509;SDS011;15723;55.684;37.928;2022-09-29T08:12:54;14.95;;;9.95;;
28509;SDS011;15723;55.684;37.928;2022-09-29T08:15:20;11.45;;;9.20;;
28509;SDS011;15723;55.684;37.928;2022-09-29T08:17:47;12.85;;;9.73;;
28509;SDS011;15723;55.684;37.928;2022-09-29T08:23:02;20.27;;;11.10;;
28509;SDS011;15723;55.684;37.928;2022-09-29T08:25:28;21.15;;;11.13;;
28509;SDS011;15723;55.684;37.928;2022-09-29T08:27:54;17.70;;;10.02;;
28509;SDS011;15723;55.684;37.928;2022-09-29T08:30:20;14.90;;;9.27;;
28509;SDS011;15723;55.684;37.928;2022-09-29T08:32:50;14.80;;;9.57;;
28509;SDS011;15723;55.684;37.928;2022-09-29T08:35:17;18.48;;;10.45;;
28509;SDS011;15723;55.684;37.928;2022-09-29T08:37:43;17.90;;;10.48;;
28509;SDS011;15723;55.684;37.928;2022-09-29T08:40:09;14.73;;;10.27;;
28509;SDS011;15723;55.684;37.928;2022-09-29T08:43:10;17.05;;;11.50;;
28509;SDS011;15723;55.684;37.928;2022-09-29T08:45:47;12.85;;;9.48;;
28509;SDS011;15723;55.684;37.928;2022-09-29T08:48:39;15.93;;;11.32;;
28509;SDS011;15723;55.684;37.928;2022-09-29T08:51:20;16.17;;;10.45;;
28509;SDS011;15723;55.684;37.928;2022-09-29T08:54:14;18.63;;;12.93;;
28509;SDS011;15723;55.684;37.928;2022-09-29T09:00:01;16.25;;;10.98;;
28509;SDS011;15723;55.684;37.928;2022-09-29T09:16:15;16.80;;;11.38;;
28509;SDS011;15723;55.684;37.928;2022-09-29T09:21:42;16.02;;;10.45;;
28509;SDS011;15723;55.684;37.928;2022-09-29T09:26:46;15.20;;;10.25;;
28509;SDS011;15723;55.684;37.928;2022-09-29T09:29:15;15.35;;;10.80;;
28509;SDS011;15723;55.684;37.928;2022-09-29T09:31:49;15.20;;;10.63;;
28509;SDS011;15723;55.684;37.928;2022-09-29T09:34:25;16.98;;;10.43;;
28509;SDS011;15723;55.684;37.928;2022-09-29T09:37:02;14.57;;;9.30;;
28509;SDS011;15723;55.684;37.928;2022-09-29T09:39:36;15.20;;;9.68;;
28509;SDS011;15723;55.684;37.928;2022-09-29T09:42:46;16.73;;;10.55;;
28509;SDS011;15723;55.684;37.928;2022-09-29T09:45:19;12.30;;;9.07;;
28509;SDS011;15723;55.684;37.928;2022-09-29T09:47:55;13.98;;;10.45;;
28509;SDS011;15723;55.684;37.928;2022-09-29T09:50:30;15.38;;;9.82;;
28509;SDS011;15723;55.684;37.928;2022-09-29T09:52:58;12.23;;;9.55;;
28509;SDS011;15723;55.684;37.928;2022-09-29T09:55:29;20.02;;;10.70;;
28509;SDS011;15723;55.684;37.928;2022-09-29T10:00:50;13.38;;;9.40;;
28509;SDS011;15723;55.684;37.928;2022-09-29T10:03:29;17.10;;;10.77;;
28509;SDS011;15723;55.684;37.928;2022-09-29T10:05:56;12.95;;;9.02;;
28509;SDS011;15723;55.684;37.928;2022-09-29T10:08:29;19.05;;;11.60;;
28509;SDS011;15723;55.684;37.928;2022-09-29T10:11:21;16.58;;;12.25;;
28509;SDS011;15723;55.684;37.928;2022-09-29T10:13:51;13.32;;;9.93;;
28509;SDS011;15723;55.684;37.928;2022-09-29T10:16:26;15.00;;;10.10;;
28509;SDS011;15723;55.684;37.928;2022-09-29T10:19:00;19.73;;;12.32;;
28509;SDS011;15723;55.684;37.928;2022-09-29T10:24:01;19.92;;;10.95;;
28509;SDS011;15723;55.684;37.928;2022-09-29T10:26:39;15.15;;;11.70;;
28509;SDS011;15723;55.684;37.928;2022-09-29T10:32:05;16.33;;;11.10;;
28509;SDS011;15723;55.684;37.928;2022-09-29T10:34:33;15.15;;;10.18;;
28509;SDS011;15723;55.684;37.928;2022-09-29T10:37:04;15.48;;;10.27;;
28509;SDS011;15723;55.684;37.928;2022-09-29T10:40:00;17.98;;;10.00;;
28509;SDS011;15723;55.684;37.928;2022-09-29T10:42:41;18.52;;;10.70;;
28509;SDS011;15723;55.684;37.928;2022-09-29T10:45:12;17.67;;;11.23;;
28509;SDS011;15723;55.684;37.928;2022-09-29T10:47:47;17.00;;;9.65;;
28509;SDS011;15723;55.684;37.928;2022-09-29T10:50:36;19.35;;;10.90;;
28509;SDS011;15723;55.684;37.928;2022-09-29T10:53:34;18.85;;;11.25;;
28509;SDS011;15723;55.684;37.928;2022-09-29T10:56:08;16.27;;;10.57;;
28509;SDS011;15723;55.684;37.928;2022-09-29T10:58:59;16.70;;;11.30;;
28509;SDS011;15723;55.684;37.928;2022-09-29T11:01:29;15.48;;;10.20;;
28509;SDS011;15723;55.684;37.928;2022-09-29T11:03:59;14.85;;;9.98;;
28509;SDS011;15723;55.684;37.928;2022-09-29T11:06:33;15.63;;;9.48;;
28509;SDS011;15723;55.684;37.928;2022-09-29T11:11:31;17.10;;;11.45;;
28509;SDS011;15723;55.684;37.928;2022-09-29T11:14:07;21.42;;;11.57;;
28509;SDS011;15723;55.684;37.928;2022-09-29T11:16:57;15.90;;;10.25;;
28509;SDS011;15723;55.684;37.928;2022-09-29T11:19:26;17.27;;;10.35;;
28509;SDS011;15723;55.684;37.928;2022-09-29T11:22:09;16.80;;;10.50;;
28509;SDS011;15723;55.684;37.928;2022-09-29T11:25:06;16.00;;;11.07;;
28509;SDS011;15723;55.684;37.928;2022-09-29T11:36:52;17.60;;;11.32;;
28509;SDS011;15723;55.684;37.928;2022-09-29T11:45:23;22.02;;;12.20;;
28509;SDS011;15723;55.684;37.928;2022-09-29T11:56:01;17.52;;;12.35;;
28509;SDS011;15723;55.684;37.928;2022-09-29T12:02:21;24.30;;;13.77;;
28509;SDS011;15723;55.684;37.928;2022-09-29T12:05:16;16.95;;;11.95;;
28509;SDS011;15723;55.684;37.928;2022-09-29T12:16:15;20.42;;;12.70;;
28509;SDS011;15723;55.684;37.928;2022-09-29T12:18:49;27.15;;;15.00;;
28509;SDS011;15723;55.684;37.928;2022-09-29T12:21:27;20.52;;;13.20;;
28509;SDS011;15723;55.684;37.928;2022-09-29T12:23:59;16.65;;;11.05;;
28509;SDS011;15723;55.684;37.928;2022-09-29T12:26:30;17.38;;;10.15;;
28509;SDS011;15723;55.684;37.928;2022-09-29T12:29:00;18.85;;;10.68;;
28509;SDS011;15723;55.684;37.928;2022-09-29T12:31:31;14.90;;;10.57;;
28509;SDS011;15723;55.684;37.928;2022-09-29T12:34:13;17.67;;;10.77;;
28509;SDS011;15723;55.684;37.928;2022-09-29T12:36:49;16.85;;;12.45;;
28509;SDS011;15723;55.684;37.928;2022-09-29T12:42:09;16.08;;;9.60;;
28509;SDS011;15723;55.684;37.928;2022-09-29T12:44:52;16.67;;;9.88;;
28509;SDS011;15723;55.684;37.928;2022-09-29T12:50:38;16.30;;;9.77;;
28509;SDS011;15723;55.684;37.928;2022-09-29T12:53:32;16.88;;;9.63;;
28509;SDS011;15723;55.684;37.928;2022-09-29T12:58:48;11.35;;;9.13;;
28509;SDS011;15723;55.684;37.928;2022-09-29T13:06:51;11.63;;;8.50;;
28509;SDS011;15723;55.684;37.928;2022-09-29T13:09:48;13.27;;;9.98;;
28509;SDS011;15723;55.684;37.928;2022-09-29T13:15:51;15.70;;;9.98;;
28509;SDS011;15723;55.684;37.928;2022-09-29T13:18:49;12.73;;;9.27;;
28509;SDS011;15723;55.684;37.928;2022-09-29T13:21:22;16.52;;;9.55;;
28509;SDS011;15723;55.684;37.928;2022-09-29T13:24:13;13.15;;;9.95;;
28509;SDS011;15723;55.684;37.928;2022-09-29T13:29:47;13.35;;;9.45;;
28509;SDS011;15723;55.684;37.928;2022-09-29T13:32:19;16.92;;;10.70;;
28509;SDS011;15723;55.684;37.928;2022-09-29T13:34:56;14.45;;;9.30;;
28509;SDS011;15723;55.684;37.928;2022-09-29T13:37:25;15.93;;;10.52;;
28509;SDS011;15723;55.684;37.928;2022-09-29T13:39:57;21.85;;;12.98;;
28509;SDS011;15723;55.684;37.928;2022-09-29T13:42:44;16.75;;;11.88;;
28509;SDS011;15723;55.684;37.928;2022-09-29T13:50:46;16.05;;;10.23;;
28509;SDS011;15723;55.684;37.928;2022-09-29T13:58:31;17.25;;;9.82;;
28509;SDS011;15723;55.684;37.928;2022-09-29T14:01:02;22.83;;;10.55;;
28509;SDS011;15723;55.684;37.928;2022-09-29T14:06:11;18.58;;;12.52;;
28509;SDS011;15723;55.684;37.928;2022-09-29T14:08:49;17.92;;;10.50;;
28509;SDS011;15723;55.684;37.928;2022-09-29T14:11:21;19.73;;;12.05;;
28509;SDS011;15723;55.684;37.928;2022-09-29T14:21:58;23.15;;;14.02;;
28509;SDS011;15723;55.684;37.928;2022-09-29T14:29:54;21.20;;;14.25;;
28509;SDS011;15723;55.684;37.928;2022-09-29T14:33:12;20.83;;;12.93;;
28509;SDS011;15723;55.684;37.928;2022-09-29T14:40:57;33.53;;;17.83;;
28509;SDS011;15723;55.684;37.928;2022-09-29T14:43:36;27.17;;;15.02;;
28509;SDS011;15723;55.684;37.928;2022-09-29T14:46:21;23.17;;;14.02;;
28509;SDS011;15723;55.684;37.928;2022-09-29T14:58:14;36.80;;;17.27;;
28509;SDS011;15723;55.684;37.928;2022-09-29T15:03:44;23.80;;;15.07;;
28509;SDS011;15723;55.684;37.928;2022-09-29T15:06:16;30.10;;;15.43;;
28509;SDS011;15723;55.684;37.928;2022-09-29T15:11:33;24.23;;;15.60;;
28509;SDS011;15723;55.684;37.928;2022-09-29T15:14:04;37.33;;;16.70;;
28509;SDS011;15723;55.684;37.928;2022-09-29T15:16:48;31.05;;;19.02;;
28509;SDS011;15723;55.684;37.928;2022-09-29T15:19:25;29.10;;;16.35;;
28509;SDS011;15723;55.684;37.928;2022-09-29T15:21:55;25.73;;;16.17;;
28509;SDS011;15723;55.684;37.928;2022-09-29T15:24:49;32.75;;;17.08;;
28509;SDS011;15723;55.684;37.928;2022-09-29T15:27:28;29.63;;;16.23;;
28509;SDS011;15723;55.684;37.928;2022-09-29T15:29:58;33.33;;;18.98;;
28509;SDS011;15723;55.684;37.928;2022-09-29T15:32:25;38.42;;;19.52;;
28509;SDS011;15723;55.684;37.928;2022-09-29T15:35:12;28.95;;;17.55;;
28509;SDS011;15723;55.684;37.928;2022-09-29T15:40:22;40.92;;;21.85;;
28509;SDS011;15723;55.684;37.928;2022-09-29T15:42:50;48.08;;;23.35;;
28509;SDS011;15723;55.684;37.928;2022-09-29T15:45:20;35.35;;;18.77;;
28509;SDS011;15723;55.684;37.928;2022-09-29T15:47:56;36.22;;;22.98;;
28509;SDS011;15723;55.684;37.928;2022-09-29T15:50:45;40.28;;;22.23;;
28509;SDS011;15723;55.684;37.928;2022-09-29T15:53:11;41.08;;;22.95;;
28509;SDS011;15723;55.684;37.928;2022-09-29T15:55:37;36.10;;;22.88;;
28509;SDS011;15723;55.684;37.928;2022-09-29T16:00:58;44.72;;;25.67;;
28509;SDS011;15723;55.684;37.928;2022-09-29T16:08:39;43.80;;;27.15;;
28509;SDS011;15723;55.684;37.928;2022-09-29T16:11:21;38.85;;;25.77;;
28509;SDS011;15723;55.684;37.928;2022-09-29T16:14:15;39.78;;;24.85;;
28509;SDS011;15723;55.684;37.928;2022-09-29T16:16:45;41.92;;;25.35;;
28509;SDS011;15723;55.684;37.928;2022-09-29T16:21:57;41.45;;;24.27;;
28509;SDS011;15723;55.684;37.928;2022-09-29T16:24:32;49.17;;;26.88;;
28509;SDS011;15723;55.684;37.928;2022-09-29T16:27:00;50.75;;;28.13;;
28509;SDS011;15723;55.684;37.928;2022-09-29T16:29:28;50.80;;;30.95;;
28509;SDS011;15723;55.684;37.928;2022-09-29T16:31:59;58.20;;;30.95;;
28509;SDS011;15723;55.684;37.928;2022-09-29T16:34:47;50.75;;;29.65;;
28509;SDS011;15723;55.684;37.928;2022-09-29T16:37:14;52.75;;;30.67;;
28509;SDS011;15723;55.684;37.928;2022-09-29T16:39:43;55.15;;;32.05;;
28509;SDS011;15723;55.684;37.928;2022-09-29T16:42:19;55.63;;;32.78;;
28509;SDS011;15723;55.684;37.928;2022-09-29T16:44:50;54.70;;;30.77;;
28509;SDS011;15723;55.684;37.928;2022-09-29T16:47:19;47.28;;;30.15;;
28509;SDS011;15723;55.684;37.928;2022-09-29T16:49:49;46.03;;;27.55;;
28509;SDS011;15723;55.684;37.928;2022-09-29T17:00:33;46.88;;;28.35;;
28509;SDS011;15723;55.684;37.928;2022-09-29T17:03:00;51.42;;;29.13;;
28509;SDS011;15723;55.684;37.928;2022-09-29T17:05:37;49.43;;;31.20;;
28509;SDS011;15723;55.684;37.928;2022-09-29T17:08:21;50.53;;;30.27;;
28509;SDS011;15723;55.684;37.928;2022-09-29T17:10:50;48.17;;;29.77;;
28509;SDS011;15723;55.684;37.928;2022-09-29T17:13:17;54.33;;;31.10;;
28509;SDS011;15723;55.684;37.928;2022-09-29T17:15:44;59.65;;;36.50;;
28509;SDS011;15723;55.684;37.928;2022-09-29T17:18:16;61.30;;;36.70;;
28509;SDS011;15723;55.684;37.928;2022-09-29T17:20:43;53.95;;;29.95;;
28509;SDS011;15723;55.684;37.928;2022-09-29T17:23:09;46.95;;;28.20;;
28509;SDS011;15723;55.684;37.928;2022-09-29T17:25:37;46.83;;;27.02;;
28509;SDS011;15723;55.684;37.928;2022-09-29T17:28:13;49.10;;;27.10;;
28509;SDS011;15723;55.684;37.928;2022-09-29T17:30:43;46.35;;;27.77;;
28509;SDS011;15723;55.684;37.928;2022-09-29T17:33:12;49.05;;;29.42;;
28509;SDS011;15723;55.684;37.928;2022-09-29T17:35:45;52.42;;;29.85;;
28509;SDS011;15723;55.684;37.928;2022-09-29T17:38:14;49.58;;;28.38;;
28509;SDS011;15723;55.684;37.928;2022-09-29T17:40:43;45.33;;;27.98;;
28509;SDS011;15723;55.684;37.928;2022-09-29T17:43:15;55.67;;;30.45;;
28509;SDS011;15723;55.684;37.928;2022-09-29T17:45:45;58.40;;;30.75;;
28509;SDS011;15723;55.684;37.928;2022-09-29T17:48:11;57.03;;;30.70;;
28509;SDS011;15723;55.684;37.928;2022-09-29T17:50:43;62.30;;;32.25;;
28509;SDS011;15723;55.684;37.928;2022-09-29T17:53:11;57.15;;;33.50;;
28509;SDS011;15723;55.684;37.928;2022-09-29T17:55:39;63.72;;;34.67;;
28509;SDS011;15723;55.684;37.928;2022-09-29T17:58:06;60.17;;;30.77;;
28509;SDS011;15723;55.684;37.928;2022-09-29T18:00:36;57.90;;;30.80;;
28509;SDS011;15723;55.684;37.928;2022-09-29T18:03:04;58.83;;;31.73;;
28509;SDS011;15723;55.684;37.928;2022-09-29T18:05:34;61.05;;;31.77;;
28509;SDS011;15723;55.684;37.928;2022-09-29T18:08:03;57.45;;;31.38;;